METAR Data
IDs: Format: Raw Decoded Include TAF

Data at: 1959 UTC 26 Sep 2021

METAR for:KPNS (Pensacola Intl, FL, US)
Text:KPNS 261953Z VRB04KT 10SM CLR 31/17 A3005 RMK AO2 SLP176 T03060167
Temperature: 30.6°C ( 87°F)
Dewpoint: 16.7°C ( 62°F) [RH = 43%]
Pressure (altimeter):30.05 inches Hg (1017.7 mb) [Sea level pressure: 1017.6 mb]
Winds:variable direction winds at 5 MPH (4 knots; 2.1 m/s)
Visibility:10 or more sm (16+ km)
Ceiling:at least 12,000 feet AGL
Clouds:sky clear below 12,000 feet AGL

TAF for:KPNS (Pensacola Intl, FL, US) issued at 1720 UTC 26 Sep 2021
Text:KPNS 261720Z 2618/2718 10005KT P6SM SKC
Forecast period:1800 to 2200 UTC 26 September 2021
Forecast type:FROM: standard forecast or significant change
Winds:from the E (100 degrees) at 6 MPH (5 knots; 2.6 m/s)
Visibility:6 or more sm (10+ km)
Ceiling:at least 12,000 feet AGL
Clouds:clear skies
Text:FM262200 18006KT P6SM SKC
Forecast period:2200 UTC 26 September 2021 to 0200 UTC 27 September 2021
Forecast type:FROM: standard forecast or significant change
Winds:from the S (180 degrees) at 7 MPH (6 knots; 3.1 m/s)
Visibility:6 or more sm (10+ km)
Ceiling:at least 12,000 feet AGL
Clouds:clear skies
Text:FM270200 VRB04KT P6SM SKC
Forecast period:0200 to 1800 UTC 27 September 2021
Forecast type:FROM: standard forecast or significant change
Winds:variable direction winds at 5 MPH (4 knots; 2.1 m/s)
Visibility:6 or more sm (10+ km)
Ceiling:at least 12,000 feet AGL
Clouds:clear skies